Time;durP1;ratioP1;P1;durP2;ratioP2;P2;SDS_P1;SDS_P2;PMS_P1;PMS_P2;Temp;Humidity;BMP_temperature;BMP_pressure;BME280_temperature;BME280_humidity;BME280_pressure;Samples;Min_cycle;Max_cycle;Signal;HPM_P1;HPM_P2
2023/06/29 00:01:07;;;;;;;;;24.80;22.60;;;;;17.38;52.12;99496.25;4915572;29;8890;-77
2023/06/29 00:03:57;;;;;;;;;26.80;26.80;;;;;17.43;52.00;99490.72;4901240;29;8913;-78
2023/06/29 00:06:27;;;;;;;;;27.60;27.60;;;;;17.43;51.77;99488.06;4915488;29;8891;-76
2023/06/29 00:08:56;;;;;;;;;29.20;29.00;;;;;17.47;51.61;99485.16;4915615;29;8970;-75
2023/06/29 00:11:25;;;;;;;;;28.60;25.80;;;;;17.39;51.82;99490.03;4915316;29;8879;-76
2023/06/29 00:13:54;;;;;;;;;25.40;24.60;;;;;17.41;51.88;99500.56;4915620;29;8879;-76
2023/06/29 00:16:23;;;;;;;;;27.20;27.00;;;;;17.42;51.65;99491.66;4915304;29;8879;-78
2023/06/29 00:18:55;;;;;;;;;25.80;25.00;;;;;17.38;51.79;99491.81;4915069;29;8974;-76
2023/06/29 00:21:28;;;;;;;;;27.40;27.20;;;;;17.43;51.59;99494.25;4910563;29;8877;-76
2023/06/29 00:23:57;;;;;;;;;27.00;26.20;;;;;17.43;51.58;99493.38;4929811;29;8891;-78
2023/06/29 00:26:29;;;;;;;;;26.60;26.60;;;;;17.41;51.61;99492.59;4929684;29;9397;-77
2023/06/29 00:28:57;;;;;;;;;26.40;24.20;;;;;17.41;51.70;99493.47;4929660;29;8867;-76
2023/06/29 00:31:27;;;;;;;;;27.40;27.40;;;;;17.39;51.54;99488.22;4913223;29;9637;-75
2023/06/29 00:33:56;;;;;;;;;22.40;21.60;;;;;17.36;51.89;99483.06;4915543;29;8860;-76
2023/06/29 00:36:27;;;;;;;;;27.60;26.80;;;;;17.30;51.86;99485.16;4914970;29;9006;-76
2023/06/29 00:38:56;;;;;;;;;26.80;26.20;;;;;17.31;51.92;99485.09;4920279;29;8907;-76
2023/06/29 00:41:25;;;;;;;;;27.40;22.40;;;;;17.25;51.82;99480.09;4917592;29;8875;-77
2023/06/29 00:43:55;;;;;;;;;25.60;24.00;;;;;17.20;52.16;99476.75;4929389;29;9618;-76
2023/06/29 00:46:24;;;;;;;;;27.00;26.40;;;;;17.23;52.12;99473.97;4929224;29;8890;-75
2023/06/29 00:48:53;;;;;;;;;22.80;22.20;;;;;17.22;52.16;99479.34;4929435;29;8905;-77
2023/06/29 00:51:23;;;;;;;;;23.20;23.20;;;;;17.24;51.95;99478.31;4914415;29;8871;-78
2023/06/29 00:53:53;;;;;;;;;28.80;27.80;;;;;17.17;52.19;99467.16;4912482;29;9001;-77
2023/06/29 00:56:22;;;;;;;;;24.40;24.40;;;;;17.25;51.91;99471.22;4925593;29;8885;-77
2023/06/29 00:58:50;;;;;;;;;25.40;24.00;;;;;17.11;52.48;99469.25;4911147;29;8883;-77
2023/06/29 01:01:19;;;;;;;;;27.00;25.60;;;;;17.11;52.41;99474.56;4929363;29;8909;-77
2023/06/29 01:03:48;;;;;;;;;27.00;26.80;;;;;17.11;52.49;99470.09;4929280;29;8883;-76
2023/06/29 01:06:23;;;;;;;;;27.00;26.00;;;;;17.10;52.48;99468.41;4930446;29;8863;-75
2023/06/29 01:08:58;;;;;;;;;23.40;22.00;;;;;17.09;52.48;99469.31;4915363;29;8993;-76
2023/06/29 01:11:27;;;;;;;;;26.60;25.00;;;;;17.00;52.51;99470.66;4913456;29;8871;-74
2023/06/29 01:14:00;;;;;;;;;25.00;25.00;;;;;16.95;52.70;99472.66;4930118;29;8947;-74
2023/06/29 01:16:32;;;;;;;;;24.40;24.40;;;;;16.97;52.66;99468.13;4929158;29;8891;-76
2023/06/29 01:19:04;;;;;;;;;26.60;25.20;;;;;16.95;52.78;99469.16;4899810;29;8911;-78
2023/06/29 01:21:37;;;;;;;;;26.80;25.60;;;;;16.98;52.65;99466.31;4930220;29;8865;-78
2023/06/29 01:24:09;;;;;;;;;26.80;24.60;;;;;17.00;52.50;99469.75;4900377;29;8864;-77
2023/06/29 01:26:40;;;;;;;;;25.20;24.80;;;;;16.97;52.69;99470.78;4932390;29;8999;-76
2023/06/29 01:29:09;;;;;;;;;26.80;26.20;;;;;16.97;52.52;99468.13;4931488;29;8872;-77
2023/06/29 01:31:38;;;;;;;;;26.20;25.60;;;;;16.95;52.38;99470.00;4932343;29;8904;-76
2023/06/29 01:34:07;;;;;;;;;24.40;22.60;;;;;16.98;52.58;99474.28;4932822;29;8907;-76
2023/06/29 01:36:42;;;;;;;;;24.60;24.40;;;;;17.01;52.58;99463.53;4915201;28;8891;-76
2023/06/29 01:39:21;;;;;;;;;22.00;21.80;;;;;17.02;52.39;99467.03;4930113;29;8884;-79
2023/06/29 01:41:53;;;;;;;;;30.40;27.40;;;;;16.78;52.98;99465.50;4930456;29;8919;-78
2023/06/29 01:44:22;;;;;;;;;24.80;24.80;;;;;16.83;52.57;99464.41;4949012;28;8885;-77
2023/06/29 01:46:53;;;;;;;;;26.00;25.40;;;;;16.85;52.48;99460.75;4933425;28;8870;-80
2023/06/29 01:49:22;;;;;;;;;22.20;22.20;;;;;16.87;52.44;99466.88;4931690;28;8963;-76
2023/06/29 01:51:51;;;;;;;;;23.40;23.20;;;;;16.88;52.28;99463.25;4933032;28;8970;-76
2023/06/29 01:54:21;;;;;;;;;23.40;23.40;;;;;16.91;52.15;99463.13;4932812;28;8954;-76
2023/06/29 01:56:51;;;;;;;;;28.20;26.60;;;;;16.94;52.15;99465.63;4932714;28;8871;-76
2023/06/29 01:59:20;;;;;;;;;24.80;24.80;;;;;16.91;52.22;99463.13;4916764;28;8996;-75
2023/06/29 02:01:49;;;;;;;;;22.40;21.80;;;;;16.94;51.97;99462.09;4948604;28;8875;-77
2023/06/29 02:04:18;;;;;;;;;24.00;23.40;;;;;16.94;51.72;99460.31;4948750;28;8993;-78
2023/06/29 02:06:48;;;;;;;;;28.00;25.00;;;;;16.85;52.33;99459.91;4931620;28;9071;-76
2023/06/29 02:09:17;;;;;;;;;23.80;23.60;;;;;16.72;52.40;99460.50;4932502;28;8896;-76
2023/06/29 02:11:46;;;;;;;;;21.00;21.00;;;;;16.64;52.60;99454.69;4948415;28;9597;-76
2023/06/29 02:14:17;;;;;;;;;25.80;24.80;;;;;16.70;52.56;99465.03;4931917;28;8887;-75
2023/06/29 02:16:46;;;;;;;;;25.00;24.80;;;;;16.66;52.41;99460.78;4896316;29;8950;-76
2023/06/29 02:19:15;;;;;;;;;23.40;22.20;;;;;16.64;52.62;99461.78;4912429;29;8905;-75
2023/06/29 02:21:45;;;;;;;;;23.80;23.80;;;;;16.57;52.44;99456.78;4926385;29;8867;-76
2023/06/29 02:24:14;;;;;;;;;25.00;24.20;;;;;16.52;52.62;99456.13;4915668;29;8887;-76
2023/06/29 02:26:43;;;;;;;;;23.20;21.40;;;;;16.55;52.60;99447.16;4930798;29;8863;-76
2023/06/29 02:29:12;;;;;;;;;27.00;25.20;;;;;16.59;52.27;99449.59;4910734;29;9637;-76
2023/06/29 02:31:42;;;;;;;;;22.00;21.60;;;;;16.60;52.39;99453.09;4913115;29;8871;-76
2023/06/29 02:34:11;;;;;;;;;25.20;22.80;;;;;16.59;52.29;99459.38;4925588;29;8875;-77
2023/06/29 02:36:40;;;;;;;;;23.40;22.40;;;;;16.65;52.27;99459.06;4894280;29;9565;-77
2023/06/29 02:39:09;;;;;;;;;24.80;24.80;;;;;16.52;52.29;99458.78;4909019;29;8895;-74
2023/06/29 02:41:38;;;;;;;;;21.20;21.20;;;;;16.52;52.35;99465.88;4910269;29;8894;-77
2023/06/29 02:44:07;;;;;;;;;21.80;21.80;;;;;16.53;52.30;99465.81;4909893;29;8929;-75
2023/06/29 02:46:36;;;;;;;;;22.80;22.20;;;;;16.54;52.22;99467.53;4894523;29;8867;-76
2023/06/29 02:49:07;;;;;;;;;23.20;22.00;;;;;16.54;52.31;99472.84;4878404;29;8949;-77
2023/06/29 02:51:37;;;;;;;;;25.80;24.00;;;;;16.58;52.27;99468.25;4878788;29;8878;-75
2023/06/29 02:54:08;;;;;;;;;19.20;19.20;;;;;16.57;52.02;99456.78;4923222;29;8879;-75
2023/06/29 02:56:37;;;;;;;;;23.60;23.60;;;;;16.52;52.19;99468.53;4906407;29;8866;-75
2023/06/29 02:59:06;;;;;;;;;23.40;21.60;;;;;16.53;52.39;99467.59;4916384;29;9584;-76
2023/06/29 03:01:35;;;;;;;;;19.40;18.80;;;;;16.55;52.35;99468.38;4881814;29;8856;-75
2023/06/29 03:04:04;;;;;;;;;22.60;22.20;;;;;16.56;52.10;99465.66;4928634;29;8889;-76
2023/06/29 03:06:36;;;;;;;;;21.40;20.40;;;;;16.61;51.89;99468.97;4893980;29;8891;-76
2023/06/29 03:09:06;;;;;;;;;25.20;24.60;;;;;16.61;51.90;99468.13;4862294;29;8864;-77
2023/06/29 03:11:36;;;;;;;;;22.60;22.00;;;;;16.67;51.70;99473.13;4882279;29;8895;-77
2023/06/29 03:14:04;;;;;;;;;25.40;23.80;;;;;16.67;51.67;99465.16;4930711;29;8890;-75
2023/06/29 03:16:33;;;;;;;;;26.60;25.20;;;;;16.74;51.70;99469.25;4931538;29;8998;-75
2023/06/29 03:19:02;;;;;;;;;81.75;77.75;;;;;16.75;51.50;99475.41;4911917;29;8910;-78
2023/06/29 03:21:31;;;;;;;;;28.80;27.80;;;;;16.78;51.46;99472.63;4894167;29;10023;-77
2023/06/29 03:24:01;;;;;;;;;27.40;26.00;;;;;16.83;51.35;99469.72;4909679;29;8888;-76
2023/06/29 03:26:30;;;;;;;;;27.60;26.20;;;;;16.86;51.38;99472.25;4863709;29;8864;-77
2023/06/29 03:28:59;;;;;;;;;20.80;19.20;;;;;16.90;51.17;99479.13;4863470;29;8869;-79
2023/06/29 03:31:28;;;;;;;;;24.80;24.00;;;;;16.94;50.84;99475.38;4908299;29;8902;-75
2023/06/29 03:33:58;;;;;;;;;26.80;24.00;;;;;17.00;50.79;99475.06;4909516;29;8993;-76
2023/06/29 03:36:27;;;;;;;;;23.80;22.00;;;;;17.09;50.52;99477.28;4909421;29;8876;-77
2023/06/29 03:38:56;;;;;;;;;24.40;23.60;;;;;17.13;50.19;99478.84;4909511;29;8955;-74
2023/06/29 03:41:26;;;;;;;;;22.60;21.60;;;;;17.23;50.13;99478.41;4909168;29;8872;-76
2023/06/29 03:43:55;;;;;;;;;24.60;22.00;;;;;17.26;50.03;99479.13;4909368;29;8884;-76
2023/06/29 03:46:24;;;;;;;;;57.25;47.00;;;;;17.35;50.14;99481.34;4907994;29;8892;-76
2023/06/29 03:48:53;;;;;;;;;52.50;44.25;;;;;17.43;49.71;99482.75;4909455;29;8880;-77
2023/06/29 03:51:22;;;;;;;;;17.60;16.60;;;;;17.51;49.31;99476.13;4925818;29;8913;-78
2023/06/29 03:53:51;;;;;;;;;21.40;20.60;;;;;17.57;49.15;99481.13;4911944;29;8863;-75
2023/06/29 03:56:20;;;;;;;;;20.40;20.40;;;;;17.63;49.28;99481.72;4912043;29;8863;-76
2023/06/29 03:58:50;;;;;;;;;21.80;21.80;;;;;17.76;49.00;99488.16;4910343;29;8894;-76
2023/06/29 04:01:19;;;;;;;;;25.40;24.40;;;;;17.80;48.80;99492.38;4910697;29;8989;-76
2023/06/29 04:03:47;;;;;;;;;44.50;38.00;;;;;17.90;48.60;99490.94;4907811;29;8866;-77
2023/06/29 04:06:17;;;;;;;;;22.00;20.80;;;;;18.00;48.35;99493.13;4893640;29;8890;-76
2023/06/29 04:08:45;;;;;;;;;23.20;22.40;;;;;17.98;48.23;99487.88;4911788;29;8862;-79
2023/06/29 04:11:14;;;;;;;;;22.20;22.20;;;;;18.13;48.12;99480.91;4912987;29;8874;-75
2023/06/29 04:13:43;;;;;;;;;22.00;20.80;;;;;18.25;47.49;99490.91;4910100;29;8890;-76
2023/06/29 04:16:14;;;;;;;;;22.40;22.40;;;;;18.15;47.38;99495.84;4909235;29;8882;-77
2023/06/29 04:18:43;;;;;;;;;18.80;18.80;;;;;18.12;47.63;99489.88;4861615;29;9008;-77
2023/06/29 04:21:12;;;;;;;;;20.40;20.00;;;;;18.28;47.61;99496.06;4895417;29;8965;-78
2023/06/29 04:23:41;;;;;;;;;39.40;33.60;;;;;18.31;47.36;99489.72;4912563;29;9029;-75
2023/06/29 04:26:10;;;;;;;;;22.00;22.00;;;;;18.47;46.84;99492.41;4912977;29;8882;-78
2023/06/29 04:28:44;;;;;;;;;35.00;32.00;;;;;18.47;46.76;99497.72;4912792;29;8858;-77
2023/06/29 04:31:14;;;;;;;;;31.00;29.40;;;;;18.65;46.40;99501.19;4898382;29;8904;-77
2023/06/29 04:33:43;;;;;;;;;21.60;18.40;;;;;18.78;46.02;99490.69;4884549;29;9492;-77
2023/06/29 04:36:13;;;;;;;;;23.00;21.80;;;;;18.94;45.92;99491.59;4911751;29;8868;-77
2023/06/29 04:38:42;;;;;;;;;21.20;20.00;;;;;19.08;45.42;99486.34;4896908;29;8876;-78
2023/06/29 04:41:11;;;;;;;;;30.60;30.40;;;;;19.22;45.31;99498.88;4912403;29;8896;-78
2023/06/29 04:43:39;;;;;;;;;26.40;26.40;;;;;19.36;44.88;99494.53;4912384;29;8954;-80
2023/06/29 04:46:08;;;;;;;;;25.40;23.60;;;;;19.30;45.04;99495.75;4913210;29;9598;-78
2023/06/29 04:48:39;;;;;;;;;18.00;18.00;;;;;19.46;44.86;99499.25;4913752;29;8863;-77
2023/06/29 04:51:08;;;;;;;;;19.40;19.40;;;;;19.45;44.66;99497.53;4913643;29;8918;-79
2023/06/29 04:53:37;;;;;;;;;14.40;14.40;;;;;19.49;44.56;99495.53;4914729;29;8930;-73
2023/06/29 04:56:06;;;;;;;;;25.00;22.00;;;;;19.80;43.99;99497.28;4914447;29;8986;-78
2023/06/29 04:58:35;;;;;;;;;21.20;20.00;;;;;19.58;44.16;99503.03;4884784;29;9017;-77
2023/06/29 05:01:04;;;;;;;;;17.80;17.00;;;;;19.74;44.15;99505.63;4917567;29;8864;-77
2023/06/29 05:03:35;;;;;;;;;18.40;17.60;;;;;19.07;44.70;99505.94;4930047;29;8867;-75
2023/06/29 05:06:06;;;;;;;;;17.60;17.40;;;;;19.38;44.47;99514.81;4881626;29;9061;-77
2023/06/29 05:08:34;;;;;;;;;22.00;20.20;;;;;19.48;44.51;99505.34;4911617;29;8902;-78
2023/06/29 05:11:04;;;;;;;;;19.40;18.40;;;;;19.24;44.51;99510.28;4912058;29;9029;-78
2023/06/29 05:13:35;;;;;;;;;22.00;21.80;;;;;18.88;45.36;99507.94;4912221;29;8887;-77
2023/06/29 05:16:05;;;;;;;;;20.40;20.40;;;;;19.11;45.25;99512.81;4928505;29;9649;-77
2023/06/29 05:18:36;;;;;;;;;20.20;20.20;;;;;19.19;45.42;99512.34;4881116;29;8898;-76
2023/06/29 05:21:07;;;;;;;;;18.40;18.40;;;;;18.37;47.01;99509.84;4895871;29;9967;-77
2023/06/29 05:23:36;;;;;;;;;24.40;23.00;;;;;18.62;46.16;99509.34;4912210;29;8888;-76
2023/06/29 05:26:05;;;;;;;;;18.60;18.40;;;;;19.06;45.20;99509.53;4912209;29;8974;-76
2023/06/29 05:28:33;;;;;;;;;16.80;15.60;;;;;17.87;48.16;99512.41;4913045;29;9018;-74
2023/06/29 05:31:03;;;;;;;;;22.00;18.80;;;;;18.48;47.23;99510.97;4911296;29;8899;-74
2023/06/29 05:33:31;;;;;;;;;17.20;16.80;;;;;17.61;49.35;99518.16;4910027;29;8914;-75
2023/06/29 05:36:00;;;;;;;;;22.80;22.20;;;;;17.72;49.09;99513.16;4926287;29;8863;-74
2023/06/29 05:38:30;;;;;;;;;17.80;17.40;;;;;17.15;50.77;99522.13;4927659;29;10092;-75
2023/06/29 05:40:59;;;;;;;;;20.00;18.40;;;;;17.60;50.06;99517.31;4910454;29;8896;-74
2023/06/29 05:43:30;;;;;;;;;18.00;18.00;;;;;17.81;49.59;99518.00;4879380;29;9611;-75
2023/06/29 05:45:59;;;;;;;;;21.60;18.60;;;;;18.08;49.09;99520.19;4910388;29;8934;-78
2023/06/29 05:48:28;;;;;;;;;17.80;17.00;;;;;18.08;48.93;99518.41;4878949;29;8864;-75
2023/06/29 05:50:57;;;;;;;;;21.80;20.80;;;;;17.29;51.66;99518.00;4909216;29;8888;-76
2023/06/29 05:53:26;;;;;;;;;21.40;20.40;;;;;18.19;49.46;99519.63;4911290;29;8876;-76
2023/06/29 05:55:56;;;;;;;;;20.60;20.00;;;;;18.44;48.58;99513.84;4897332;29;9020;-75
2023/06/29 05:58:25;;;;;;;;;20.40;20.40;;;;;18.54;48.06;99515.09;4914396;29;8872;-76
2023/06/29 06:00:54;;;;;;;;;21.80;20.80;;;;;18.15;49.06;99522.44;4882051;29;8861;-73
2023/06/29 06:03:23;;;;;;;;;13.40;13.40;;;;;18.56;48.41;99526.50;4910929;29;8873;-74
2023/06/29 06:05:52;;;;;;;;;16.20;15.60;;;;;19.22;46.89;99522.84;4908843;29;9047;-73
2023/06/29 06:08:21;;;;;;;;;19.00;17.40;;;;;18.57;48.55;99517.56;4909399;29;8903;-79
2023/06/29 06:10:50;;;;;;;;;25.20;19.80;;;;;18.41;48.44;99524.69;4910761;29;8899;-81
2023/06/29 06:13:20;;;;;;;;;18.60;18.60;;;;;18.81;47.47;99525.19;4910200;29;8884;-78
2023/06/29 06:15:49;;;;;;;;;17.40;17.20;;;;;17.96;49.34;99527.84;4880955;29;8920;-77
2023/06/29 06:18:19;;;;;;;;;20.80;18.00;;;;;18.15;49.91;99519.78;4914821;29;8957;-78
2023/06/29 06:20:47;;;;;;;;;15.80;15.80;;;;;18.77;48.28;99526.28;4910885;29;8933;-78
2023/06/29 06:23:16;;;;;;;;;20.00;19.00;;;;;17.88;50.56;99530.06;4914472;29;8879;-77
2023/06/29 06:25:45;;;;;;;;;17.40;17.40;;;;;17.73;51.46;99523.72;4913760;29;8904;-79
2023/06/29 06:28:15;;;;;;;;;21.00;20.40;;;;;17.91;51.42;99519.28;4913097;29;8871;-77
2023/06/29 06:30:46;;;;;;;;;20.00;19.60;;;;;17.90;51.61;99520.19;4910739;29;8891;-77
2023/06/29 06:33:16;;;;;;;;;18.40;17.20;;;;;18.65;49.70;99520.69;4910616;29;8858;-77
2023/06/29 06:35:44;;;;;;;;;19.80;18.20;;;;;18.97;47.92;99518.06;4891029;29;8991;-76
2023/06/29 06:38:14;;;;;;;;;19.20;18.20;;;;;18.40;49.63;99526.47;4869434;29;8857;-77
2023/06/29 06:40:43;;;;;;;;;19.60;18.80;;;;;18.42;49.68;99526.38;4869650;29;8859;-78
2023/06/29 06:43:12;;;;;;;;;19.20;17.60;;;;;19.19;47.84;99516.84;4872753;29;8914;-77
2023/06/29 06:45:41;;;;;;;;;22.20;20.40;;;;;19.44;46.75;99519.81;4879484;29;8908;-75
2023/06/29 06:48:11;;;;;;;;;19.40;18.60;;;;;19.60;46.81;99519.78;4874320;29;8882;-74
2023/06/29 06:50:40;;;;;;;;;21.40;21.20;;;;;19.96;46.22;99513.22;4871820;29;8862;-77
2023/06/29 06:53:10;;;;;;;;;22.20;21.80;;;;;19.84;45.71;99520.16;4856634;29;8957;-75
2023/06/29 06:55:39;;;;;;;;;20.80;20.20;;;;;19.84;46.24;99512.16;4872145;29;8875;-75
2023/06/29 06:58:09;;;;;;;;;17.80;17.40;;;;;20.11;45.08;99511.41;4872312;29;8885;-74
2023/06/29 07:00:38;;;;;;;;;18.20;17.80;;;;;18.64;48.15;99516.28;4872189;29;8870;-75
2023/06/29 07:03:07;;;;;;;;;19.00;19.00;;;;;18.32;49.55;99510.91;4872246;29;8890;-74
2023/06/29 07:05:38;;;;;;;;;15.80;15.80;;;;;18.35;49.74;99518.75;4872248;29;8965;-75
2023/06/29 07:08:07;;;;;;;;;17.60;16.20;;;;;18.45;48.44;99511.13;4893470;29;8901;-76
2023/06/29 07:10:35;;;;;;;;;19.40;17.80;;;;;18.23;49.31;99511.44;4912118;29;8895;-78
2023/06/29 07:13:04;;;;;;;;;16.60;16.20;;;;;18.54;49.23;99515.09;4926994;29;8962;-75
2023/06/29 07:15:33;;;;;;;;;19.80;19.20;;;;;18.79;49.37;99516.44;4911812;29;9653;-77
2023/06/29 07:18:02;;;;;;;;;21.20;20.60;;;;;18.61;49.95;99513.81;4912496;29;8851;-77
2023/06/29 07:20:32;;;;;;;;;15.20;15.00;;;;;18.98;49.53;99513.59;4910469;29;8867;-75
2023/06/29 07:23:05;;;;;;;;;17.40;16.40;;;;;18.97;48.33;99515.41;4926574;29;8894;-75
2023/06/29 07:25:37;;;;;;;;;20.60;20.00;;;;;19.40;47.64;99510.25;4911596;29;8867;-75
2023/06/29 07:28:06;;;;;;;;;18.80;17.80;;;;;19.27;47.98;99514.59;4910596;29;8875;-74
2023/06/29 07:30:35;;;;;;;;;17.40;16.40;;;;;19.64;47.13;99507.16;4912125;29;8860;-75
2023/06/29 07:33:04;;;;;;;;;15.20;14.80;;;;;19.87;46.13;99505.75;4912456;29;8867;-76
2023/06/29 07:35:33;;;;;;;;;19.00;18.60;;;;;20.09;45.84;99503.50;4910493;29;8926;-77
2023/06/29 07:38:03;;;;;;;;;20.60;18.80;;;;;20.34;45.11;99501.16;4910655;29;9558;-77
2023/06/29 07:40:33;;;;;;;;;15.60;15.20;;;;;20.34;45.46;99501.16;4913127;29;8884;-75
2023/06/29 07:43:02;;;;;;;;;14.80;14.80;;;;;19.87;45.69;99503.94;4913422;29;9637;-74
2023/06/29 07:45:31;;;;;;;;;21.20;19.60;;;;;19.91;46.26;99507.28;4894019;29;8872;-74
2023/06/29 07:48:00;;;;;;;;;32.20;29.00;;;;;20.01;47.11;99503.13;4912463;29;8871;-76
2023/06/29 07:50:29;;;;;;;;;20.80;19.60;;;;;20.01;47.30;99505.78;4912625;29;9579;-79
2023/06/29 07:52:58;;;;;;;;;22.60;20.00;;;;;19.83;46.85;99509.56;4911025;29;8871;-78
2023/06/29 07:55:27;;;;;;;;;18.60;18.60;;;;;19.61;47.45;99509.97;4913442;29;9001;-78
2023/06/29 07:57:57;;;;;;;;;19.40;19.20;;;;;20.07;46.28;99507.22;4916021;29;8859;-76
2023/06/29 08:00:29;;;;;;;;;17.60;17.60;;;;;20.38;44.86;99495.53;4915241;29;8863;-74
2023/06/29 08:02:58;;;;;;;;;10.00;10.00;;;;;20.25;44.58;99491.91;4912782;29;8997;-76
2023/06/29 08:05:28;;;;;;;;;17.00;17.00;;;;;19.73;46.12;99497.75;4915310;29;8891;-75
2023/06/29 08:08:00;;;;;;;;;18.20;18.20;;;;;19.60;46.63;99494.94;4915115;29;8933;-76
2023/06/29 08:10:29;;;;;;;;;20.20;19.20;;;;;20.06;45.99;99487.66;4915085;29;8859;-74
2023/06/29 08:12:59;;;;;;;;;18.00;16.60;;;;;20.49;44.36;99495.72;4914866;29;8867;-75
2023/06/29 08:15:28;;;;;;;;;19.40;17.00;;;;;20.93;43.29;99479.63;4897846;29;8875;-75
2023/06/29 08:17:57;;;;;;;;;14.20;13.40;;;;;21.22;42.31;99483.06;4914943;29;8871;-74
2023/06/29 08:20:26;;;;;;;;;17.80;16.40;;;;;20.94;43.03;99484.88;4896819;29;8980;-77
2023/06/29 08:22:55;;;;;;;;;15.60;14.80;;;;;20.77;42.98;99477.09;4914901;29;8890;-77
2023/06/29 08:25:24;;;;;;;;;13.80;13.20;;;;;20.91;41.30;99481.53;4914926;29;9033;-76
2023/06/29 08:27:53;;;;;;;;;17.40;17.20;;;;;20.22;42.20;99486.75;4913572;29;8887;-77
2023/06/29 08:30:23;;;;;;;;;12.40;10.40;;;;;20.31;43.40;99483.50;4915021;29;8965;-77
2023/06/29 08:32:52;;;;;;;;;16.40;15.40;;;;;19.64;44.61;99501.81;4918397;29;8950;-76
2023/06/29 08:35:21;;;;;;;;;19.60;19.20;;;;;19.69;44.94;99505.91;4915433;29;8871;-76
2023/06/29 08:37:50;;;;;;;;;15.40;14.20;;;;;19.98;43.26;99486.44;4914586;29;8891;-73
2023/06/29 08:40:21;;;;;;;;;16.80;16.80;;;;;20.08;43.56;99484.91;4914656;29;8872;-74
2023/06/29 08:42:51;;;;;;;;;16.80;15.80;;;;;19.97;43.03;99498.94;4914651;29;8875;-73
2023/06/29 08:45:20;;;;;;;;;13.20;13.20;;;;;20.32;42.47;99487.06;4914893;29;8895;-72
2023/06/29 08:47:52;;;;;;;;;19.60;18.60;;;;;20.39;42.33;99489.25;4914684;29;8851;-72
2023/06/29 08:50:25;;;;;;;;;15.40;14.60;;;;;20.62;42.51;99481.59;4914426;29;9732;-74
2023/06/29 08:52:57;;;;;;;;;15.60;13.80;;;;;21.20;41.82;99474.28;4914590;29;8863;-75
2023/06/29 08:55:26;;;;;;;;;17.20;16.80;;;;;21.73;40.22;99477.88;4914640;29;8871;-75
2023/06/29 08:57:55;;;;;;;;;13.20;13.20;;;;;22.27;38.83;99476.81;4914392;29;8922;-75
2023/06/29 09:00:24;;;;;;;;;12.60;12.60;;;;;21.83;39.05;99478.09;4911877;29;8979;-75
2023/06/29 09:02:58;;;;;;;;;12.40;12.00;;;;;22.60;38.12;99468.19;4914199;29;9026;-75
2023/06/29 09:05:28;;;;;;;;;14.40;14.40;;;;;22.69;36.68;99468.47;4914323;29;9010;-75
2023/06/29 09:07:57;;;;;;;;;12.20;12.20;;;;;22.58;36.99;99469.25;4911758;29;8855;-75
2023/06/29 09:10:26;;;;;;;;;13.40;12.40;;;;;22.91;35.81;99460.59;4914086;29;8978;-76
2023/06/29 09:12:55;;;;;;;;;15.80;15.80;;;;;22.16;37.16;99463.28;4912878;29;9063;-79
2023/06/29 09:15:25;;;;;;;;;12.60;12.60;;;;;22.33;37.15;99470.16;4914151;29;8875;-77
2023/06/29 09:17:59;;;;;;;;;14.80;13.00;;;;;22.91;36.66;99470.47;4914511;29;8897;-75
2023/06/29 09:20:28;;;;;;;;;16.60;16.60;;;;;23.34;35.77;99461.91;4913997;29;8887;-78
2023/06/29 09:22:57;;;;;;;;;15.40;15.20;;;;;23.60;35.07;99465.28;4913827;29;8897;-77
2023/06/29 09:25:27;;;;;;;;;14.00;12.40;;;;;22.58;35.59;99478.16;4896758;29;8883;-71
2023/06/29 09:28:04;;;;;;;;;18.00;16.60;;;;;21.64;37.83;99467.78;4913967;29;8897;-74
2023/06/29 09:30:38;;;;;;;;;13.60;13.00;;;;;21.72;37.68;99465.44;4913735;29;8885;-73
2023/06/29 09:33:10;;;;;;;;;6.00;5.40;;;;;21.23;38.54;99480.28;4913798;29;8871;-77
2023/06/29 09:35:41;;;;;;;;;11.20;11.20;;;;;21.02;38.19;99473.69;4914096;29;8978;-74
2023/06/29 09:38:10;;;;;;;;;11.60;10.40;;;;;21.29;37.59;99475.50;4914139;29;8883;-73
2023/06/29 09:40:50;;;;;;;;;10.40;10.40;;;;;22.04;37.00;99479.25;4912482;29;8970;-77
2023/06/29 09:43:20;;;;;;;;;12.00;12.00;;;;;22.30;36.09;99470.41;4912568;29;8883;-74
2023/06/29 09:45:52;;;;;;;;;14.60;12.00;;;;;21.77;37.27;99475.84;4912228;29;8990;-74
2023/06/29 09:48:23;;;;;;;;;12.80;11.60;;;;;21.49;37.92;99480.34;4912554;29;8949;-75
2023/06/29 09:50:55;;;;;;;;;11.20;11.20;;;;;22.35;37.03;99466.44;4913761;29;8890;-75
2023/06/29 09:53:32;;;;;;;;;11.40;11.40;;;;;22.59;36.18;99471.81;4912129;29;8876;-77
2023/06/29 09:56:03;;;;;;;;;10.40;10.40;;;;;21.04;37.90;99469.09;4910935;29;8909;-78
2023/06/29 09:58:32;;;;;;;;;9.00;9.00;;;;;20.63;38.60;99472.59;4913283;29;8891;-76
2023/06/29 10:01:01;;;;;;;;;10.40;9.00;;;;;20.38;37.65;99476.00;4913454;29;8860;-77
2023/06/29 10:03:32;;;;;;;;;10.40;8.60;;;;;20.60;38.56;99464.81;4927597;29;8917;-76
2023/06/29 10:06:04;;;;;;;;;9.20;9.20;;;;;20.63;37.81;99459.25;4895139;29;8883;-75
2023/06/29 10:08:35;;;;;;;;;13.40;13.40;;;;;20.77;36.97;99458.38;4911334;29;8863;-77
2023/06/29 10:11:05;;;;;;;;;5.60;5.60;;;;;20.44;37.63;99460.44;4895296;29;8848;-77
2023/06/29 10:13:39;;;;;;;;;7.40;7.20;;;;;21.08;37.16;99456.41;4894890;29;8859;-76
2023/06/29 10:16:11;;;;;;;;;9.00;8.80;;;;;21.55;36.08;99457.69;4913013;29;8867;-75
2023/06/29 10:18:45;;;;;;;;;12.00;11.00;;;;;21.32;36.34;99449.41;4913616;29;8909;-77
2023/06/29 10:21:14;;;;;;;;;7.40;7.40;;;;;22.26;35.14;99451.03;4913909;29;8895;-77
2023/06/29 10:23:45;;;;;;;;;11.00;11.00;;;;;22.32;34.24;99452.41;4913574;29;8894;-77
2023/06/29 10:26:15;;;;;;;;;9.40;9.20;;;;;22.66;33.89;99452.63;4913141;29;8910;-77
2023/06/29 10:28:45;;;;;;;;;12.00;12.00;;;;;21.84;35.18;99453.91;4895126;29;8968;-76
2023/06/29 10:31:18;;;;;;;;;9.00;8.00;;;;;22.08;35.36;99453.13;4911714;29;8893;-75
2023/06/29 10:33:50;;;;;;;;;9.00;9.00;;;;;22.26;34.30;99442.09;4894862;29;8875;-76
2023/06/29 10:36:19;;;;;;;;;8.20;7.80;;;;;22.08;33.96;99446.94;4912671;29;8879;-76
2023/06/29 10:38:48;;;;;;;;;9.00;9.00;;;;;22.11;34.41;99442.22;4912648;29;8867;-76
2023/06/29 10:41:27;;;;;;;;;11.40;10.60;;;;;22.99;33.70;99441.25;4912270;29;8879;-76
2023/06/29 10:43:58;;;;;;;;;12.00;12.00;;;;;22.71;32.65;99442.41;4912567;29;8906;-76
2023/06/29 10:46:46;;;;;;;;;8.60;7.00;;;;;22.35;32.49;99449.47;4912755;29;8998;-75
2023/06/29 10:49:24;;;;;;;;;6.80;6.00;;;;;21.74;33.66;99446.59;4912043;29;8867;-75
2023/06/29 10:51:55;;;;;;;;;10.00;9.80;;;;;22.50;33.97;99437.66;4912005;29;8957;-76
2023/06/29 10:54:25;;;;;;;;;8.40;8.40;;;;;21.84;34.32;99448.56;4912111;29;8840;-75
2023/06/29 10:56:58;;;;;;;;;6.60;6.60;;;;;21.66;34.56;99444.47;4912694;29;8882;-76
2023/06/29 10:59:28;;;;;;;;;6.20;6.20;;;;;21.53;35.37;99443.56;4912460;29;8879;-75
2023/06/29 11:01:57;;;;;;;;;8.00;7.80;;;;;21.62;35.26;99440.28;4912296;29;10054;-76
2023/06/29 11:04:28;;;;;;;;;7.80;6.80;;;;;22.14;34.76;99436.63;4912220;29;8867;-75
2023/06/29 11:07:04;;;;;;;;;12.00;12.00;;;;;22.57;33.48;99436.25;4911830;29;8889;-76
2023/06/29 11:09:34;;;;;;;;;9.40;8.20;;;;;22.27;34.16;99430.44;4912155;29;8863;-75
2023/06/29 11:12:03;;;;;;;;;13.20;11.40;;;;;22.46;33.40;99441.53;4912914;29;8989;-73
2023/06/29 11:14:38;;;;;;;;;8.60;8.60;;;;;22.52;32.64;99438.41;4910096;29;8903;-74
2023/06/29 11:17:07;;;;;;;;;8.60;8.40;;;;;22.93;32.15;99431.00;4911731;29;8872;-75
2023/06/29 11:19:43;;;;;;;;;9.60;9.60;;;;;22.97;32.34;99427.97;4911667;29;8890;-76
2023/06/29 11:22:12;;;;;;;;;7.40;7.40;;;;;23.30;31.66;99412.13;4912424;29;8871;-74
2023/06/29 11:24:42;;;;;;;;;8.20;7.60;;;;;24.11;31.00;99403.16;4909648;29;9089;-74
2023/06/29 11:27:11;;;;;;;;;8.60;8.00;;;;;24.27;30.18;99415.38;4911857;29;8875;-74
2023/06/29 11:29:40;;;;;;;;;9.80;9.00;;;;;24.61;29.92;99413.47;4909439;29;8890;-76
2023/06/29 11:32:10;;;;;;;;;13.80;13.40;;;;;23.03;32.31;99426.66;4916144;29;8978;-75
2023/06/29 11:34:41;;;;;;;;;9.00;9.00;;;;;22.37;33.33;99418.09;4915733;29;8973;-73
2023/06/29 11:37:10;;;;;;;;;9.60;9.60;;;;;22.92;32.52;99419.44;4916253;29;8868;-74
2023/06/29 11:39:49;;;;;;;;;6.80;6.80;;;;;23.01;31.79;99415.19;4916679;29;8880;-74